sensor_id;sensor_type;location;lat;lon;timestamp;P1;durP1;ratioP1;P2;durP2;ratioP2
26106;SDS011;13866;50.748;12.630;2023-07-13T00:00:10;8.20;;;1.73;;
26106;SDS011;13866;50.748;12.630;2023-07-13T00:02:36;7.17;;;1.80;;
26106;SDS011;13866;50.748;12.630;2023-07-13T00:05:02;4.20;;;1.30;;
26106;SDS011;13866;50.748;12.630;2023-07-13T00:07:28;3.90;;;1.90;;
26106;SDS011;13866;50.748;12.630;2023-07-13T00:09:53;4.30;;;2.23;;
26106;SDS011;13866;50.748;12.630;2023-07-13T00:12:23;1.30;;;1.30;;
26106;SDS011;13866;50.748;12.630;2023-07-13T00:14:51;3.60;;;1.90;;
26106;SDS011;13866;50.748;12.630;2023-07-13T00:17:16;1.17;;;1.17;;
26106;SDS011;13866;50.748;12.630;2023-07-13T00:19:42;1.50;;;1.50;;
26106;SDS011;13866;50.748;12.630;2023-07-13T00:22:07;7.23;;;2.70;;
26106;SDS011;13866;50.748;12.630;2023-07-13T00:24:33;4.23;;;4.03;;
26106;SDS011;13866;50.748;12.630;2023-07-13T00:26:59;5.10;;;4.67;;
26106;SDS011;13866;50.748;12.630;2023-07-13T00:29:25;5.40;;;4.90;;
26106;SDS011;13866;50.748;12.630;2023-07-13T00:31:51;9.20;;;6.40;;
26106;SDS011;13866;50.748;12.630;2023-07-13T00:34:16;3.70;;;3.50;;
26106;SDS011;13866;50.748;12.630;2023-07-13T00:36:42;2.90;;;2.80;;
26106;SDS011;13866;50.748;12.630;2023-07-13T00:39:07;1.60;;;1.60;;
26106;SDS011;13866;50.748;12.630;2023-07-13T00:41:33;3.67;;;2.30;;
26106;SDS011;13866;50.748;12.630;2023-07-13T00:43:59;2.47;;;1.73;;
26106;SDS011;13866;50.748;12.630;2023-07-13T00:46:27;2.40;;;1.57;;
26106;SDS011;13866;50.748;12.630;2023-07-13T00:49:00;1.70;;;1.60;;
26106;SDS011;13866;50.748;12.630;2023-07-13T00:51:48;2.13;;;1.87;;
26106;SDS011;13866;50.748;12.630;2023-07-13T00:54:36;4.10;;;1.60;;
26106;SDS011;13866;50.748;12.630;2023-07-13T00:57:05;2.47;;;2.20;;
26106;SDS011;13866;50.748;12.630;2023-07-13T00:59:33;5.23;;;3.10;;
26106;SDS011;13866;50.748;12.630;2023-07-13T01:02:01;5.70;;;3.00;;
26106;SDS011;13866;50.748;12.630;2023-07-13T01:04:27;2.67;;;2.67;;
26106;SDS011;13866;50.748;12.630;2023-07-13T01:06:53;4.63;;;3.67;;
26106;SDS011;13866;50.748;12.630;2023-07-13T01:09:19;2.80;;;2.80;;
26106;SDS011;13866;50.748;12.630;2023-07-13T01:11:45;4.63;;;4.53;;
26106;SDS011;13866;50.748;12.630;2023-07-13T01:14:12;3.07;;;2.87;;
26106;SDS011;13866;50.748;12.630;2023-07-13T01:16:39;3.23;;;3.23;;
26106;SDS011;13866;50.748;12.630;2023-07-13T01:19:12;3.60;;;2.37;;
26106;SDS011;13866;50.748;12.630;2023-07-13T01:22:04;2.07;;;1.97;;
26106;SDS011;13866;50.748;12.630;2023-07-13T01:24:33;2.73;;;2.43;;
26106;SDS011;13866;50.748;12.630;2023-07-13T01:27:03;2.00;;;1.90;;
26106;SDS011;13866;50.748;12.630;2023-07-13T01:29:31;3.10;;;2.27;;
26106;SDS011;13866;50.748;12.630;2023-07-13T01:31:57;3.20;;;2.03;;
26106;SDS011;13866;50.748;12.630;2023-07-13T01:34:23;1.80;;;1.80;;
26106;SDS011;13866;50.748;12.630;2023-07-13T01:36:48;1.47;;;1.37;;
26106;SDS011;13866;50.748;12.630;2023-07-13T01:39:14;1.70;;;1.70;;
26106;SDS011;13866;50.748;12.630;2023-07-13T01:41:40;9.53;;;1.87;;
26106;SDS011;13866;50.748;12.630;2023-07-13T01:44:06;1.57;;;1.57;;
26106;SDS011;13866;50.748;12.630;2023-07-13T01:46:31;2.43;;;2.20;;
26106;SDS011;13866;50.748;12.630;2023-07-13T01:48:57;1.90;;;1.80;;
26106;SDS011;13866;50.748;12.630;2023-07-13T01:51:22;2.43;;;1.70;;
26106;SDS011;13866;50.748;12.630;2023-07-13T01:53:47;5.40;;;1.73;;
26106;SDS011;13866;50.748;12.630;2023-07-13T01:56:13;3.20;;;2.40;;
26106;SDS011;13866;50.748;12.630;2023-07-13T01:58:38;1.50;;;1.50;;
26106;SDS011;13866;50.748;12.630;2023-07-13T02:01:04;2.07;;;1.97;;
26106;SDS011;13866;50.748;12.630;2023-07-13T02:03:29;1.87;;;1.87;;
26106;SDS011;13866;50.748;12.630;2023-07-13T02:05:55;1.90;;;1.80;;
26106;SDS011;13866;50.748;12.630;2023-07-13T02:08:21;2.00;;;1.90;;
26106;SDS011;13866;50.748;12.630;2023-07-13T02:10:46;1.87;;;1.83;;
26106;SDS011;13866;50.748;12.630;2023-07-13T02:13:12;2.20;;;2.20;;
26106;SDS011;13866;50.748;12.630;2023-07-13T02:15:40;8.00;;;1.47;;
26106;SDS011;13866;50.748;12.630;2023-07-13T02:18:06;2.30;;;1.97;;
26106;SDS011;13866;50.748;12.630;2023-07-13T02:20:31;2.53;;;1.77;;
26106;SDS011;13866;50.748;12.630;2023-07-13T02:22:57;2.00;;;1.90;;
26106;SDS011;13866;50.748;12.630;2023-07-13T02:25:22;2.93;;;2.30;;
26106;SDS011;13866;50.748;12.630;2023-07-13T02:27:49;4.53;;;1.80;;
26106;SDS011;13866;50.748;12.630;2023-07-13T02:30:15;6.23;;;1.83;;
26106;SDS011;13866;50.748;12.630;2023-07-13T02:32:40;2.00;;;1.90;;
26106;SDS011;13866;50.748;12.630;2023-07-13T02:35:06;2.77;;;1.70;;
26106;SDS011;13866;50.748;12.630;2023-07-13T02:37:32;1.57;;;1.57;;
26106;SDS011;13866;50.748;12.630;2023-07-13T02:39:57;3.80;;;1.90;;
26106;SDS011;13866;50.748;12.630;2023-07-13T02:42:23;2.73;;;2.37;;
26106;SDS011;13866;50.748;12.630;2023-07-13T02:44:48;1.80;;;1.77;;
26106;SDS011;13866;50.748;12.630;2023-07-13T02:47:15;1.50;;;1.50;;
26106;SDS011;13866;50.748;12.630;2023-07-13T02:49:41;2.00;;;2.00;;
26106;SDS011;13866;50.748;12.630;2023-07-13T02:52:06;1.60;;;1.60;;
26106;SDS011;13866;50.748;12.630;2023-07-13T02:54:32;2.10;;;1.77;;
26106;SDS011;13866;50.748;12.630;2023-07-13T02:56:57;2.40;;;2.30;;
26106;SDS011;13866;50.748;12.630;2023-07-13T02:59:23;1.63;;;1.57;;
26106;SDS011;13866;50.748;12.630;2023-07-13T03:01:48;3.00;;;2.80;;
26106;SDS011;13866;50.748;12.630;2023-07-13T03:04:14;5.77;;;1.83;;
26106;SDS011;13866;50.748;12.630;2023-07-13T03:06:39;1.83;;;1.83;;
26106;SDS011;13866;50.748;12.630;2023-07-13T03:09:05;2.17;;;2.10;;
26106;SDS011;13866;50.748;12.630;2023-07-13T03:11:30;1.90;;;1.77;;
26106;SDS011;13866;50.748;12.630;2023-07-13T03:13:56;1.77;;;1.67;;
26106;SDS011;13866;50.748;12.630;2023-07-13T03:16:22;2.40;;;2.17;;
26106;SDS011;13866;50.748;12.630;2023-07-13T03:18:48;2.43;;;1.97;;
26106;SDS011;13866;50.748;12.630;2023-07-13T03:21:14;1.70;;;1.70;;
26106;SDS011;13866;50.748;12.630;2023-07-13T03:23:39;2.73;;;2.07;;
26106;SDS011;13866;50.748;12.630;2023-07-13T03:26:06;2.20;;;2.10;;
26106;SDS011;13866;50.748;12.630;2023-07-13T03:28:37;2.03;;;1.93;;
26106;SDS011;13866;50.748;12.630;2023-07-13T03:31:05;4.73;;;2.00;;
26106;SDS011;13866;50.748;12.630;2023-07-13T03:33:33;4.50;;;2.57;;
26106;SDS011;13866;50.748;12.630;2023-07-13T03:35:58;2.80;;;2.60;;
26106;SDS011;13866;50.748;12.630;2023-07-13T03:38:24;3.37;;;2.30;;
26106;SDS011;13866;50.748;12.630;2023-07-13T03:40:51;2.83;;;2.40;;
26106;SDS011;13866;50.748;12.630;2023-07-13T03:43:17;4.83;;;2.23;;
26106;SDS011;13866;50.748;12.630;2023-07-13T03:45:42;2.50;;;2.30;;
26106;SDS011;13866;50.748;12.630;2023-07-13T03:48:08;3.80;;;2.23;;
26106;SDS011;13866;50.748;12.630;2023-07-13T03:50:34;3.70;;;2.30;;
26106;SDS011;13866;50.748;12.630;2023-07-13T03:52:59;3.23;;;2.90;;
26106;SDS011;13866;50.748;12.630;2023-07-13T03:55:25;2.70;;;2.50;;
26106;SDS011;13866;50.748;12.630;2023-07-13T03:57:53;2.90;;;2.73;;
26106;SDS011;13866;50.748;12.630;2023-07-13T04:00:23;3.57;;;2.10;;
26106;SDS011;13866;50.748;12.630;2023-07-13T04:02:48;8.50;;;3.13;;
26106;SDS011;13866;50.748;12.630;2023-07-13T04:05:14;8.33;;;2.50;;
26106;SDS011;13866;50.748;12.630;2023-07-13T04:07:40;2.90;;;2.67;;
26106;SDS011;13866;50.748;12.630;2023-07-13T04:10:06;4.20;;;2.47;;
26106;SDS011;13866;50.748;12.630;2023-07-13T04:12:31;3.00;;;2.70;;
26106;SDS011;13866;50.748;12.630;2023-07-13T04:14:57;2.43;;;1.83;;
26106;SDS011;13866;50.748;12.630;2023-07-13T04:17:22;2.27;;;2.10;;
26106;SDS011;13866;50.748;12.630;2023-07-13T04:19:48;2.37;;;2.27;;
26106;SDS011;13866;50.748;12.630;2023-07-13T04:22:14;6.70;;;2.60;;
26106;SDS011;13866;50.748;12.630;2023-07-13T04:24:39;2.57;;;2.37;;
26106;SDS011;13866;50.748;12.630;2023-07-13T04:27:05;2.13;;;2.13;;
26106;SDS011;13866;50.748;12.630;2023-07-13T04:29:31;2.10;;;2.10;;
26106;SDS011;13866;50.748;12.630;2023-07-13T04:31:57;3.17;;;2.40;;
26106;SDS011;13866;50.748;12.630;2023-07-13T04:34:22;3.80;;;1.80;;
26106;SDS011;13866;50.748;12.630;2023-07-13T04:36:49;2.47;;;2.37;;
26106;SDS011;13866;50.748;12.630;2023-07-13T04:39:15;2.10;;;2.00;;
26106;SDS011;13866;50.748;12.630;2023-07-13T04:41:40;2.17;;;2.17;;
26106;SDS011;13866;50.748;12.630;2023-07-13T04:44:06;2.53;;;2.07;;
26106;SDS011;13866;50.748;12.630;2023-07-13T04:46:31;2.10;;;2.10;;
26106;SDS011;13866;50.748;12.630;2023-07-13T04:48:57;2.57;;;2.47;;
26106;SDS011;13866;50.748;12.630;2023-07-13T04:51:23;6.90;;;2.60;;
26106;SDS011;13866;50.748;12.630;2023-07-13T04:53:49;2.23;;;2.13;;
26106;SDS011;13866;50.748;12.630;2023-07-13T04:56:15;3.87;;;1.70;;
26106;SDS011;13866;50.748;12.630;2023-07-13T04:58:40;2.50;;;2.40;;
26106;SDS011;13866;50.748;12.630;2023-07-13T05:01:06;4.43;;;2.70;;
26106;SDS011;13866;50.748;12.630;2023-07-13T05:03:33;2.37;;;2.30;;
26106;SDS011;13866;50.748;12.630;2023-07-13T05:06:00;5.20;;;2.50;;
26106;SDS011;13866;50.748;12.630;2023-07-13T05:08:27;2.40;;;2.33;;
26106;SDS011;13866;50.748;12.630;2023-07-13T05:10:53;2.90;;;2.80;;
26106;SDS011;13866;50.748;12.630;2023-07-13T05:13:19;2.40;;;2.20;;
26106;SDS011;13866;50.748;12.630;2023-07-13T05:15:44;2.03;;;1.93;;
26106;SDS011;13866;50.748;12.630;2023-07-13T05:18:10;8.23;;;2.43;;
26106;SDS011;13866;50.748;12.630;2023-07-13T05:20:36;2.60;;;2.50;;
26106;SDS011;13866;50.748;12.630;2023-07-13T05:23:01;3.03;;;2.70;;
26106;SDS011;13866;50.748;12.630;2023-07-13T05:25:27;3.17;;;2.97;;
26106;SDS011;13866;50.748;12.630;2023-07-13T05:27:52;9.80;;;2.83;;
26106;SDS011;13866;50.748;12.630;2023-07-13T05:30:18;3.80;;;3.00;;
26106;SDS011;13866;50.748;12.630;2023-07-13T05:32:43;5.27;;;2.50;;
26106;SDS011;13866;50.748;12.630;2023-07-13T05:35:09;2.73;;;2.33;;
26106;SDS011;13866;50.748;12.630;2023-07-13T05:37:34;5.20;;;2.47;;
26106;SDS011;13866;50.748;12.630;2023-07-13T05:40:00;2.73;;;2.33;;
26106;SDS011;13866;50.748;12.630;2023-07-13T05:42:25;3.17;;;2.47;;
26106;SDS011;13866;50.748;12.630;2023-07-13T05:44:51;3.80;;;1.97;;
26106;SDS011;13866;50.748;12.630;2023-07-13T05:47:17;6.43;;;2.70;;
26106;SDS011;13866;50.748;12.630;2023-07-13T05:49:42;5.20;;;2.33;;
26106;SDS011;13866;50.748;12.630;2023-07-13T05:52:08;8.93;;;2.90;;
26106;SDS011;13866;50.748;12.630;2023-07-13T05:54:33;2.33;;;2.33;;
26106;SDS011;13866;50.748;12.630;2023-07-13T05:56:59;2.30;;;2.20;;
26106;SDS011;13866;50.748;12.630;2023-07-13T05:59:24;1.87;;;1.87;;
26106;SDS011;13866;50.748;12.630;2023-07-13T06:01:50;3.50;;;3.23;;
26106;SDS011;13866;50.748;12.630;2023-07-13T06:04:17;7.00;;;2.40;;
26106;SDS011;13866;50.748;12.630;2023-07-13T06:06:43;3.80;;;2.40;;
26106;SDS011;13866;50.748;12.630;2023-07-13T06:09:08;7.63;;;2.90;;
26106;SDS011;13866;50.748;12.630;2023-07-13T06:11:33;1.70;;;1.60;;
26106;SDS011;13866;50.748;12.630;2023-07-13T06:14:00;3.67;;;2.30;;
26106;SDS011;13866;50.748;12.630;2023-07-13T06:16:25;2.30;;;2.20;;
26106;SDS011;13866;50.748;12.630;2023-07-13T06:18:51;5.13;;;2.13;;
26106;SDS011;13866;50.748;12.630;2023-07-13T06:21:17;4.63;;;2.50;;
26106;SDS011;13866;50.748;12.630;2023-07-13T06:23:45;2.73;;;1.87;;
26106;SDS011;13866;50.748;12.630;2023-07-13T06:26:15;2.97;;;2.40;;
26106;SDS011;13866;50.748;12.630;2023-07-13T06:28:42;3.47;;;1.80;;
26106;SDS011;13866;50.748;12.630;2023-07-13T06:31:09;3.67;;;2.33;;
26106;SDS011;13866;50.748;12.630;2023-07-13T06:33:36;3.00;;;1.73;;
26106;SDS011;13866;50.748;12.630;2023-07-13T06:36:03;2.60;;;2.03;;
26106;SDS011;13866;50.748;12.630;2023-07-13T06:38:29;4.30;;;2.13;;
26106;SDS011;13866;50.748;12.630;2023-07-13T06:40:55;1.50;;;1.40;;
26106;SDS011;13866;50.748;12.630;2023-07-13T06:43:21;2.07;;;1.90;;
26106;SDS011;13866;50.748;12.630;2023-07-13T06:45:46;4.23;;;1.70;;
26106;SDS011;13866;50.748;12.630;2023-07-13T06:48:18;11.50;;;1.40;;
26106;SDS011;13866;50.748;12.630;2023-07-13T06:50:44;4.57;;;2.33;;
26106;SDS011;13866;50.748;12.630;2023-07-13T06:53:11;12.77;;;1.43;;
26106;SDS011;13866;50.748;12.630;2023-07-13T06:55:37;8.47;;;1.70;;
26106;SDS011;13866;50.748;12.630;2023-07-13T06:58:03;7.73;;;1.77;;
26106;SDS011;13866;50.748;12.630;2023-07-13T07:00:29;4.83;;;2.00;;
26106;SDS011;13866;50.748;12.630;2023-07-13T07:02:54;1.90;;;1.50;;
26106;SDS011;13866;50.748;12.630;2023-07-13T07:05:20;1.80;;;1.70;;
26106;SDS011;13866;50.748;12.630;2023-07-13T07:07:47;4.53;;;1.50;;
26106;SDS011;13866;50.748;12.630;2023-07-13T07:10:14;1.77;;;1.63;;
26106;SDS011;13866;50.748;12.630;2023-07-13T07:12:40;1.67;;;1.60;;
26106;SDS011;13866;50.748;12.630;2023-07-13T07:15:05;1.70;;;1.60;;
26106;SDS011;13866;50.748;12.630;2023-07-13T07:17:31;5.50;;;1.70;;
26106;SDS011;13866;50.748;12.630;2023-07-13T07:19:56;3.40;;;1.97;;
26106;SDS011;13866;50.748;12.630;2023-07-13T07:22:22;2.53;;;1.37;;
26106;SDS011;13866;50.748;12.630;2023-07-13T07:24:47;1.80;;;1.70;;
26106;SDS011;13866;50.748;12.630;2023-07-13T07:27:13;4.30;;;1.30;;
26106;SDS011;13866;50.748;12.630;2023-07-13T07:29:38;4.17;;;1.60;;
26106;SDS011;13866;50.748;12.630;2023-07-13T07:32:04;2.37;;;1.60;;
26106;SDS011;13866;50.748;12.630;2023-07-13T07:34:30;3.97;;;1.60;;
26106;SDS011;13866;50.748;12.630;2023-07-13T07:36:59;2.70;;;1.53;;
26106;SDS011;13866;50.748;12.630;2023-07-13T07:39:26;3.80;;;1.90;;
26106;SDS011;13866;50.748;12.630;2023-07-13T07:41:51;4.03;;;2.33;;
26106;SDS011;13866;50.748;12.630;2023-07-13T07:44:17;17.93;;;1.50;;
26106;SDS011;13866;50.748;12.630;2023-07-13T07:46:42;2.90;;;1.23;;
26106;SDS011;13866;50.748;12.630;2023-07-13T07:49:08;1.40;;;1.40;;
26106;SDS011;13866;50.748;12.630;2023-07-13T07:51:33;4.00;;;1.40;;
26106;SDS011;13866;50.748;12.630;2023-07-13T07:53:58;3.03;;;1.70;;
26106;SDS011;13866;50.748;12.630;2023-07-13T07:56:24;1.70;;;1.60;;
26106;SDS011;13866;50.748;12.630;2023-07-13T07:58:50;1.77;;;1.43;;
26106;SDS011;13866;50.748;12.630;2023-07-13T08:01:15;2.63;;;1.60;;
26106;SDS011;13866;50.748;12.630;2023-07-13T08:03:41;2.20;;;1.23;;
26106;SDS011;13866;50.748;12.630;2023-07-13T08:06:07;2.07;;;1.53;;
26106;SDS011;13866;50.748;12.630;2023-07-13T08:08:32;1.60;;;1.50;;
26106;SDS011;13866;50.748;12.630;2023-07-13T08:11:01;6.47;;;1.87;;
26106;SDS011;13866;50.748;12.630;2023-07-13T08:13:31;5.00;;;1.40;;
26106;SDS011;13866;50.748;12.630;2023-07-13T08:15:56;1.40;;;1.30;;
26106;SDS011;13866;50.748;12.630;2023-07-13T08:18:22;1.60;;;1.27;;
26106;SDS011;13866;50.748;12.630;2023-07-13T08:20:47;15.63;;;1.70;;
26106;SDS011;13866;50.748;12.630;2023-07-13T08:23:13;2.30;;;1.60;;
26106;SDS011;13866;50.748;12.630;2023-07-13T08:25:38;2.63;;;2.03;;
26106;SDS011;13866;50.748;12.630;2023-07-13T08:28:04;1.50;;;1.40;;
26106;SDS011;13866;50.748;12.630;2023-07-13T08:30:29;6.37;;;1.90;;
26106;SDS011;13866;50.748;12.630;2023-07-13T08:32:55;6.03;;;1.50;;
26106;SDS011;13866;50.748;12.630;2023-07-13T08:35:20;5.33;;;1.50;;
26106;SDS011;13866;50.748;12.630;2023-07-13T08:37:46;3.60;;;1.50;;
26106;SDS011;13866;50.748;12.630;2023-07-13T08:40:11;1.57;;;1.47;;
26106;SDS011;13866;50.748;12.630;2023-07-13T08:42:50;1.60;;;1.40;;
26106;SDS011;13866;50.748;12.630;2023-07-13T08:47:49;8.80;;;1.80;;
26106;SDS011;13866;50.748;12.630;2023-07-13T08:50:19;5.10;;;1.83;;
26106;SDS011;13866;50.748;12.630;2023-07-13T08:52:48;1.43;;;1.33;;
26106;SDS011;13866;50.748;12.630;2023-07-13T08:55:21;1.57;;;1.40;;
26106;SDS011;13866;50.748;12.630;2023-07-13T08:58:10;1.33;;;1.27;;
26106;SDS011;13866;50.748;12.630;2023-07-13T09:00:41;8.13;;;1.50;;
26106;SDS011;13866;50.748;12.630;2023-07-13T09:03:23;1.83;;;1.73;;
26106;SDS011;13866;50.748;12.630;2023-07-13T09:05:55;1.90;;;1.80;;
26106;SDS011;13866;50.748;12.630;2023-07-13T09:11:17;1.93;;;1.60;;
26106;SDS011;13866;50.748;12.630;2023-07-13T09:14:23;4.00;;;1.30;;
26106;SDS011;13866;50.748;12.630;2023-07-13T09:17:49;1.93;;;1.80;;
26106;SDS011;13866;50.748;12.630;2023-07-13T09:20:02;5.90;;;2.03;;
26106;SDS011;13866;50.748;12.630;2023-07-13T09:22:44;2.20;;;2.00;;
26106;SDS011;13866;50.748;12.630;2023-07-13T09:25:18;4.20;;;2.20;;
26106;SDS011;13866;50.748;12.630;2023-07-13T09:27:57;1.70;;;1.60;;
26106;SDS011;13866;50.748;12.630;2023-07-13T09:30:50;1.20;;;1.10;;
26106;SDS011;13866;50.748;12.630;2023-07-13T09:33:31;2.20;;;1.67;;
26106;SDS011;13866;50.748;12.630;2023-07-13T09:35:58;2.17;;;1.20;;
26106;SDS011;13866;50.748;12.630;2023-07-13T09:38:24;4.50;;;1.40;;
26106;SDS011;13866;50.748;12.630;2023-07-13T09:41:14;2.13;;;1.80;;
26106;SDS011;13866;50.748;12.630;2023-07-13T09:46:35;5.20;;;1.80;;
26106;SDS011;13866;50.748;12.630;2023-07-13T09:49:01;2.23;;;1.73;;
26106;SDS011;13866;50.748;12.630;2023-07-13T09:51:27;1.20;;;1.20;;
26106;SDS011;13866;50.748;12.630;2023-07-13T09:53:53;1.83;;;1.40;;
26106;SDS011;13866;50.748;12.630;2023-07-13T09:56:20;3.03;;;2.30;;
26106;SDS011;13866;50.748;12.630;2023-07-13T09:58:47;1.80;;;1.43;;
26106;SDS011;13866;50.748;12.630;2023-07-13T10:01:12;1.20;;;1.10;;
26106;SDS011;13866;50.748;12.630;2023-07-13T10:03:39;2.40;;;1.30;;
26106;SDS011;13866;50.748;12.630;2023-07-13T10:06:20;3.90;;;1.50;;
26106;SDS011;13866;50.748;12.630;2023-07-13T10:08:47;8.53;;;1.83;;
26106;SDS011;13866;50.748;12.630;2023-07-13T10:11:17;6.63;;;1.60;;
26106;SDS011;13866;50.748;12.630;2023-07-13T10:13:45;2.97;;;1.50;;
26106;SDS011;13866;50.748;12.630;2023-07-13T10:16:16;2.03;;;1.50;;
26106;SDS011;13866;50.748;12.630;2023-07-13T10:18:44;2.93;;;1.53;;
26106;SDS011;13866;50.748;12.630;2023-07-13T10:21:15;5.70;;;1.50;;
26106;SDS011;13866;50.748;12.630;2023-07-13T10:23:43;1.27;;;1.20;;
26106;SDS011;13866;50.748;12.630;2023-07-13T10:26:15;1.37;;;1.27;;
26106;SDS011;13866;50.748;12.630;2023-07-13T10:28:45;1.10;;;1.00;;
26106;SDS011;13866;50.748;12.630;2023-07-13T10:31:16;4.93;;;1.10;;
26106;SDS011;13866;50.748;12.630;2023-07-13T10:33:43;7.70;;;1.80;;
26106;SDS011;13866;50.748;12.630;2023-07-13T10:36:17;3.23;;;1.13;;
26106;SDS011;13866;50.748;12.630;2023-07-13T10:39:04;8.00;;;1.50;;
26106;SDS011;13866;50.748;12.630;2023-07-13T10:41:31;1.27;;;1.17;;
26106;SDS011;13866;50.748;12.630;2023-07-13T10:44:01;2.33;;;1.47;;
26106;SDS011;13866;50.748;12.630;2023-07-13T10:46:29;2.53;;;1.70;;
26106;SDS011;13866;50.748;12.630;2023-07-13T10:48:57;2.13;;;1.27;;
26106;SDS011;13866;50.748;12.630;2023-07-13T10:51:25;2.77;;;1.10;;
26106;SDS011;13866;50.748;12.630;2023-07-13T10:56:40;1.53;;;1.20;;
26106;SDS011;13866;50.748;12.630;2023-07-13T11:01:56;6.47;;;1.27;;
26106;SDS011;13866;50.748;12.630;2023-07-13T11:04:25;2.77;;;1.33;;
26106;SDS011;13866;50.748;12.630;2023-07-13T11:06:58;3.33;;;1.10;;
26106;SDS011;13866;50.748;12.630;2023-07-13T11:09:39;4.50;;;1.40;;
26106;SDS011;13866;50.748;12.630;2023-07-13T11:12:48;1.80;;;1.20;;
26106;SDS011;13866;50.748;12.630;2023-07-13T11:15:12;2.30;;;1.37;;
26106;SDS011;13866;50.748;12.630;2023-07-13T11:20:30;8.27;;;1.70;;
26106;SDS011;13866;50.748;12.630;2023-07-13T11:25:42;2.87;;;1.20;;
26106;SDS011;13866;50.748;12.630;2023-07-13T11:30:50;1.20;;;0.97;;
26106;SDS011;13866;50.748;12.630;2023-07-13T11:36:14;1.87;;;1.53;;
26106;SDS011;13866;50.748;12.630;2023-07-13T11:38:45;1.23;;;1.07;;
26106;SDS011;13866;50.748;12.630;2023-07-13T11:41:43;3.33;;;1.30;;
26106;SDS011;13866;50.748;12.630;2023-07-13T11:44:13;7.53;;;1.87;;
26106;SDS011;13866;50.748;12.630;2023-07-13T11:46:44;3.43;;;1.20;;
26106;SDS011;13866;50.748;12.630;2023-07-13T11:49:15;5.40;;;1.63;;
26106;SDS011;13866;50.748;12.630;2023-07-13T11:51:41;2.90;;;1.50;;
26106;SDS011;13866;50.748;12.630;2023-07-13T11:54:21;2.20;;;2.03;;
26106;SDS011;13866;50.748;12.630;2023-07-13T11:56:55;1.77;;;1.67;;
26106;SDS011;13866;50.748;12.630;2023-07-13T11:59:40;1.57;;;1.47;;
26106;SDS011;13866;50.748;12.630;2023-07-13T12:02:14;1.43;;;1.33;;
26106;SDS011;13866;50.748;12.630;2023-07-13T12:04:50;1.50;;;1.40;;
26106;SDS011;13866;50.748;12.630;2023-07-13T12:07:17;4.17;;;2.13;;
26106;SDS011;13866;50.748;12.630;2023-07-13T12:09:44;2.30;;;1.40;;
26106;SDS011;13866;50.748;12.630;2023-07-13T12:12:10;1.63;;;1.33;;
26106;SDS011;13866;50.748;12.630;2023-07-13T12:14:42;5.20;;;1.10;;
26106;SDS011;13866;50.748;12.630;2023-07-13T12:17:13;11.60;;;1.77;;
26106;SDS011;13866;50.748;12.630;2023-07-13T12:19:50;9.13;;;1.80;;
26106;SDS011;13866;50.748;12.630;2023-07-13T12:22:17;2.83;;;1.57;;
26106;SDS011;13866;50.748;12.630;2023-07-13T12:24:45;1.53;;;1.43;;
26106;SDS011;13866;50.748;12.630;2023-07-13T12:27:20;1.57;;;1.47;;
26106;SDS011;13866;50.748;12.630;2023-07-13T12:29:51;2.10;;;1.30;;
26106;SDS011;13866;50.748;12.630;2023-07-13T12:32:23;1.03;;;1.03;;
26106;SDS011;13866;50.748;12.630;2023-07-13T12:34:53;2.27;;;1.50;;
26106;SDS011;13866;50.748;12.630;2023-07-13T12:37:20;2.00;;;1.30;;
26106;SDS011;13866;50.748;12.630;2023-07-13T12:39:47;3.70;;;1.67;;
26106;SDS011;13866;50.748;12.630;2023-07-13T12:42:18;1.30;;;1.30;;
26106;SDS011;13866;50.748;12.630;2023-07-13T12:44:59;1.53;;;1.43;;
26106;SDS011;13866;50.748;12.630;2023-07-13T12:47:28;1.10;;;1.10;;
26106;SDS011;13866;50.748;12.630;2023-07-13T12:49:55;3.00;;;1.37;;
26106;SDS011;13866;50.748;12.630;2023-07-13T12:52:24;1.50;;;1.40;;
26106;SDS011;13866;50.748;12.630;2023-07-13T12:55:07;1.90;;;1.77;;
26106;SDS011;13866;50.748;12.630;2023-07-13T12:58:03;1.53;;;1.43;;
26106;SDS011;13866;50.748;12.630;2023-07-13T13:00:29;1.53;;;1.23;;
26106;SDS011;13866;50.748;12.630;2023-07-13T13:02:58;1.20;;;1.10;;
26106;SDS011;13866;50.748;12.630;2023-07-13T13:05:30;1.50;;;1.40;;
26106;SDS011;13866;50.748;12.630;2023-07-13T13:07:58;5.90;;;0.90;;
26106;SDS011;13866;50.748;12.630;2023-07-13T13:10:24;3.77;;;1.50;;
26106;SDS011;13866;50.748;12.630;2023-07-13T13:12:51;10.23;;;1.30;;
26106;SDS011;13866;50.748;12.630;2023-07-13T13:15:17;1.13;;;1.13;;
26106;SDS011;13866;50.748;12.630;2023-07-13T13:17:43;1.43;;;0.90;;
26106;SDS011;13866;50.748;12.630;2023-07-13T13:20:15;1.33;;;1.23;;
26106;SDS011;13866;50.748;12.630;2023-07-13T13:22:43;4.33;;;1.43;;
26106;SDS011;13866;50.748;12.630;2023-07-13T13:25:11;1.17;;;1.17;;
26106;SDS011;13866;50.748;12.630;2023-07-13T13:27:41;2.50;;;1.23;;
26106;SDS011;13866;50.748;12.630;2023-07-13T13:30:11;0.97;;;0.93;;
26106;SDS011;13866;50.748;12.630;2023-07-13T13:32:41;3.33;;;1.10;;
26106;SDS011;13866;50.748;12.630;2023-07-13T13:35:15;1.10;;;0.97;;
26106;SDS011;13866;50.748;12.630;2023-07-13T13:37:42;4.43;;;0.90;;
26106;SDS011;13866;50.748;12.630;2023-07-13T13:40:15;1.43;;;1.07;;
26106;SDS011;13866;50.748;12.630;2023-07-13T13:42:42;1.23;;;1.23;;
26106;SDS011;13866;50.748;12.630;2023-07-13T13:45:11;5.33;;;1.60;;
26106;SDS011;13866;50.748;12.630;2023-07-13T13:47:37;1.90;;;1.07;;
26106;SDS011;13866;50.748;12.630;2023-07-13T13:50:12;1.90;;;1.20;;
26106;SDS011;13866;50.748;12.630;2023-07-13T13:52:40;1.13;;;0.80;;
26106;SDS011;13866;50.748;12.630;2023-07-13T13:55:19;1.63;;;0.73;;
26106;SDS011;13866;50.748;12.630;2023-07-13T13:57:46;1.07;;;1.07;;
26106;SDS011;13866;50.748;12.630;2023-07-13T14:00:13;0.90;;;0.90;;
26106;SDS011;13866;50.748;12.630;2023-07-13T14:02:44;4.10;;;1.00;;
26106;SDS011;13866;50.748;12.630;2023-07-13T14:05:21;0.90;;;0.90;;
26106;SDS011;13866;50.748;12.630;2023-07-13T14:07:48;0.83;;;0.70;;
26106;SDS011;13866;50.748;12.630;2023-07-13T14:10:15;2.53;;;2.10;;
26106;SDS011;13866;50.748;12.630;2023-07-13T14:12:44;0.97;;;0.97;;
26106;SDS011;13866;50.748;12.630;2023-07-13T14:15:17;0.80;;;0.80;;
26106;SDS011;13866;50.748;12.630;2023-07-13T14:17:50;0.90;;;0.90;;
26106;SDS011;13866;50.748;12.630;2023-07-13T14:20:17;0.73;;;0.73;;
26106;SDS011;13866;50.748;12.630;2023-07-13T14:22:44;0.70;;;0.70;;
26106;SDS011;13866;50.748;12.630;2023-07-13T14:25:11;0.73;;;0.73;;
26106;SDS011;13866;50.748;12.630;2023-07-13T14:27:38;2.10;;;1.00;;
26106;SDS011;13866;50.748;12.630;2023-07-13T14:30:08;1.37;;;0.73;;
26106;SDS011;13866;50.748;12.630;2023-07-13T14:32:42;1.30;;;1.20;;
26106;SDS011;13866;50.748;12.630;2023-07-13T14:35:11;0.40;;;0.40;;
26106;SDS011;13866;50.748;12.630;2023-07-13T14:37:39;4.10;;;0.60;;
26106;SDS011;13866;50.748;12.630;2023-07-13T14:42:41;2.10;;;0.83;;
26106;SDS011;13866;50.748;12.630;2023-07-13T14:45:14;3.40;;;0.93;;
26106;SDS011;13866;50.748;12.630;2023-07-13T14:47:41;2.30;;;0.77;;
26106;SDS011;13866;50.748;12.630;2023-07-13T14:50:24;2.80;;;0.73;;
26106;SDS011;13866;50.748;12.630;2023-07-13T14:52:55;1.03;;;0.60;;
26106;SDS011;13866;50.748;12.630;2023-07-13T14:55:21;0.80;;;0.80;;
26106;SDS011;13866;50.748;12.630;2023-07-13T14:57:47;2.13;;;0.53;;
26106;SDS011;13866;50.748;12.630;2023-07-13T15:00:16;2.10;;;1.30;;
26106;SDS011;13866;50.748;12.630;2023-07-13T15:02:44;6.73;;;1.00;;
26106;SDS011;13866;50.748;12.630;2023-07-13T15:05:20;3.60;;;1.47;;
26106;SDS011;13866;50.748;12.630;2023-07-13T15:07:49;0.63;;;0.63;;